createdAt,value
2023-01-29T00:03:15.707Z,-3.92
2023-01-29T00:08:17.033Z,-3.90
2023-01-29T00:13:18.276Z,-3.83
2023-01-29T00:18:19.457Z,-3.86
2023-01-29T00:23:20.648Z,-3.95
2023-01-29T00:28:24.003Z,-4.00
2023-01-29T00:33:25.237Z,-4.04
2023-01-29T00:38:26.525Z,-4.06
2023-01-29T00:43:46.185Z,-4.06
2023-01-29T00:48:50.095Z,-4.04
2023-01-29T00:53:51.335Z,-4.08
2023-01-29T00:58:52.547Z,-4.16
2023-01-29T01:03:53.742Z,-4.16
2023-01-29T01:09:13.483Z,-4.19
2023-01-29T01:14:14.650Z,-4.20
2023-01-29T01:19:15.936Z,-4.16
2023-01-29T01:24:17.234Z,-4.12
2023-01-29T01:29:18.499Z,-4.10
2023-01-29T01:34:19.978Z,-4.05
2023-01-29T01:39:21.256Z,-4.04
2023-01-29T01:44:22.476Z,-4.05
2023-01-29T01:49:24.732Z,-4.06
2023-01-29T01:54:25.958Z,-4.18
2023-01-29T01:59:27.221Z,-4.20
2023-01-29T02:04:46.888Z,-4.20
2023-01-29T02:09:48.180Z,-4.22
2023-01-29T02:14:49.362Z,-4.27
2023-01-29T02:19:50.513Z,-4.34
2023-01-29T02:24:51.750Z,-4.38
2023-01-29T02:29:52.967Z,-4.39
2023-01-29T02:35:12.690Z,-4.39
2023-01-29T02:40:14.060Z,-4.39
2023-01-29T02:45:15.388Z,-4.37
2023-01-29T02:50:16.935Z,-4.32
2023-01-29T02:55:18.395Z,-4.22
2023-01-29T03:00:19.696Z,-4.21
2023-01-29T03:05:21.010Z,-4.30
2023-01-29T03:10:22.257Z,-4.34
2023-01-29T03:15:25.241Z,-4.29
2023-01-29T03:20:26.564Z,-4.37
2023-01-29T03:25:46.600Z,-4.44
2023-01-29T03:31:06.452Z,-4.49
2023-01-29T03:36:07.693Z,-4.57
2023-01-29T03:41:08.978Z,-4.60
2023-01-29T03:46:10.360Z,-4.60
2023-01-29T03:51:12.063Z,-4.63
2023-01-29T03:56:13.269Z,-4.60
2023-01-29T04:01:14.465Z,-4.54
2023-01-29T04:06:15.721Z,-4.50
2023-01-29T04:11:16.984Z,-4.57
2023-01-29T04:16:18.294Z,-4.59
2023-01-29T04:21:19.534Z,-4.59
2023-01-29T04:26:21.752Z,-4.55
2023-01-29T04:31:23.075Z,-4.58
2023-01-29T04:36:24.392Z,-4.58
2023-01-29T04:41:25.628Z,-4.58
2023-01-29T04:46:26.837Z,-4.56
2023-01-29T04:51:27.993Z,-4.60
2023-01-29T04:56:29.489Z,-4.60
2023-01-29T05:01:30.669Z,-4.58
2023-01-29T05:06:31.898Z,-4.59
2023-01-29T05:11:33.436Z,-4.61
2023-01-29T05:16:42.099Z,-4.60
2023-01-29T05:21:43.350Z,-4.56
2023-01-29T05:27:03.061Z,-4.52
2023-01-29T05:32:04.283Z,-4.51
2023-01-29T05:37:05.560Z,-4.47
2023-01-29T05:42:07.109Z,-4.44
2023-01-29T05:47:08.303Z,-4.40
2023-01-29T05:52:09.686Z,-4.37
2023-01-29T05:57:10.893Z,-4.33
2023-01-29T06:02:12.188Z,-4.28
2023-01-29T06:07:13.502Z,-4.23
2023-01-29T06:12:14.720Z,-4.25
2023-01-29T06:17:15.878Z,-4.27
2023-01-29T06:22:17.077Z,-4.31
2023-01-29T06:27:18.358Z,-4.35
2023-01-29T06:32:19.678Z,-4.36
2023-01-29T06:37:20.885Z,-4.39
2023-01-29T06:42:27.685Z,-4.44
2023-01-29T06:47:28.983Z,-4.40
2023-01-29T06:52:30.210Z,-4.37
2023-01-29T06:57:31.497Z,-4.35
2023-01-29T07:02:32.791Z,-4.31
2023-01-29T07:07:34.004Z,-4.25
2023-01-29T07:12:35.263Z,-4.16
2023-01-29T07:17:36.434Z,-3.95
2023-01-29T07:22:37.759Z,-3.72
2023-01-29T07:27:38.976Z,-3.53
2023-01-29T07:32:40.236Z,-3.37
2023-01-29T07:37:41.496Z,-3.25
2023-01-29T07:42:43.967Z,-3.13
2023-01-29T07:47:45.129Z,-3.04
2023-01-29T07:52:46.343Z,-2.95
2023-01-29T07:57:47.544Z,-2.88
2023-01-29T08:02:48.751Z,-2.79
2023-01-29T08:08:04.473Z,-2.74
2023-01-29T08:13:07.519Z,-2.73
2023-01-29T08:18:09.754Z,-2.66
2023-01-29T08:23:11.050Z,-2.58
2023-01-29T08:28:12.420Z,-2.57
2023-01-29T08:33:13.785Z,-2.56
2023-01-29T08:38:15.024Z,-2.50
2023-01-29T08:43:16.193Z,-2.44
2023-01-29T08:48:17.446Z,-2.39
2023-01-29T08:53:24.216Z,-2.28
2023-01-29T08:58:25.377Z,-2.15
2023-01-29T09:03:26.558Z,-2.05
2023-01-29T09:08:28.090Z,-2.02
2023-01-29T09:13:29.328Z,-1.97
2023-01-29T09:18:30.547Z,-1.94
2023-01-29T09:23:31.748Z,-1.89
2023-01-29T09:28:32.946Z,-1.73
2023-01-29T09:33:34.319Z,-1.60
2023-01-29T09:38:36.684Z,-1.46
2023-01-29T09:43:37.865Z,-1.35
2023-01-29T09:48:39.104Z,-1.33
2023-01-29T09:53:40.306Z,-1.25
2023-01-29T09:58:41.696Z,-1.13
2023-01-29T10:03:42.909Z,-1.01
2023-01-29T10:08:44.145Z,-0.87
2023-01-29T10:13:45.520Z,-0.72
2023-01-29T10:18:46.749Z,-0.56
2023-01-29T10:23:47.938Z,-0.40
2023-01-29T10:28:50.118Z,-0.39
2023-01-29T10:34:01.371Z,-0.42
2023-01-29T10:39:03.079Z,-0.42
2023-01-29T10:44:04.237Z,-0.40
2023-01-29T10:49:05.414Z,-0.49
2023-01-29T10:54:06.639Z,-0.54
2023-01-29T10:59:07.866Z,-0.41
2023-01-29T11:04:09.049Z,-0.36
2023-01-29T11:09:10.295Z,-0.38
2023-01-29T11:14:11.521Z,-0.31
2023-01-29T11:19:12.724Z,-0.16
2023-01-29T11:24:16.752Z,0.01
2023-01-29T11:29:17.917Z,0.14
2023-01-29T11:34:19.305Z,0.22
2023-01-29T11:39:20.789Z,0.25
2023-01-29T11:44:22.120Z,0.34
2023-01-29T11:49:23.399Z,0.37
2023-01-29T11:54:24.582Z,0.41
2023-01-29T11:59:25.758Z,0.44
2023-01-29T12:04:26.927Z,0.45
2023-01-29T12:09:28.322Z,0.45
2023-01-29T12:14:35.974Z,0.49
2023-01-29T12:19:37.269Z,0.55
2023-01-29T12:24:38.427Z,0.60
2023-01-29T12:29:39.793Z,0.66
2023-01-29T12:34:43.408Z,0.74
2023-01-29T12:39:44.662Z,0.81
2023-01-29T12:44:45.962Z,0.88
2023-01-29T12:49:47.132Z,0.88
2023-01-29T12:54:48.387Z,1.00
2023-01-29T12:59:49.717Z,1.09
2023-01-29T13:04:50.877Z,1.13
2023-01-29T13:09:52.097Z,1.18
2023-01-29T13:14:53.321Z,1.25
2023-01-29T13:19:54.493Z,1.26
2023-01-29T13:25:04.540Z,1.34
2023-01-29T13:30:06.623Z,1.38
2023-01-29T13:35:07.835Z,1.41
2023-01-29T13:40:09.025Z,1.41
2023-01-29T13:45:10.315Z,1.34
2023-01-29T13:50:11.510Z,1.30
2023-01-29T13:55:12.948Z,1.34
2023-01-29T14:00:14.176Z,1.40
2023-01-29T14:05:15.644Z,1.43
2023-01-29T14:10:17.052Z,1.48
2023-01-29T14:15:21.174Z,1.51
2023-01-29T14:20:24.236Z,1.50
2023-01-29T14:25:26.825Z,1.44
2023-01-29T14:30:28.103Z,1.37
2023-01-29T14:35:30.536Z,1.34
2023-01-29T14:40:31.717Z,1.34
2023-01-29T14:45:33.284Z,1.36
2023-01-29T14:50:37.871Z,1.36
2023-01-29T14:55:39.131Z,1.35
2023-01-29T15:00:40.344Z,1.37
2023-01-29T15:05:41.525Z,1.36
2023-01-29T15:10:42.694Z,1.33
2023-01-29T15:15:43.878Z,1.28
2023-01-29T15:20:45.120Z,1.28
2023-01-29T15:25:46.356Z,1.27
2023-01-29T15:30:47.585Z,1.26
2023-01-29T15:35:51.628Z,1.24
2023-01-29T15:40:55.079Z,1.21
2023-01-29T15:45:56.269Z,1.19
2023-01-29T15:50:57.489Z,1.19
2023-01-29T15:56:00.012Z,1.17
2023-01-29T16:01:01.260Z,1.20
2023-01-29T16:06:02.679Z,1.16
2023-01-29T16:11:03.921Z,1.16
2023-01-29T16:16:05.255Z,1.16
2023-01-29T16:21:06.603Z,1.15
2023-01-29T16:26:07.804Z,1.15
2023-01-29T16:31:09.183Z,1.15
2023-01-29T16:36:11.604Z,1.15
2023-01-29T16:41:12.838Z,1.15
2023-01-29T16:46:14.078Z,1.19
2023-01-29T16:51:15.379Z,1.23
2023-01-29T16:56:16.571Z,1.29
2023-01-29T17:01:17.769Z,1.33
2023-01-29T17:06:19.006Z,1.36
2023-01-29T17:11:20.201Z,1.38
2023-01-29T17:16:21.487Z,1.40
2023-01-29T17:21:22.805Z,1.41
2023-01-29T17:26:24.928Z,1.45
2023-01-29T17:31:26.304Z,1.48
2023-01-29T17:36:27.519Z,1.48
2023-01-29T17:41:28.786Z,1.47
2023-01-29T17:46:30.047Z,1.46
2023-01-29T17:51:31.275Z,1.40
2023-01-29T17:56:32.548Z,1.37
2023-01-29T18:01:33.792Z,1.35
2023-01-29T18:06:34.973Z,1.32
2023-01-29T18:11:36.324Z,1.32
2023-01-29T18:16:37.936Z,1.29
2023-01-29T18:21:39.517Z,1.28
2023-01-29T18:26:40.710Z,1.27
2023-01-29T18:31:42.010Z,1.27
2023-01-29T18:36:46.923Z,1.27
2023-01-29T18:41:48.126Z,1.27
2023-01-29T18:46:49.550Z,1.27
2023-01-29T18:51:50.752Z,1.27
2023-01-29T18:57:14.028Z,1.27
2023-01-29T19:02:13.281Z,1.27
2023-01-29T19:07:14.525Z,1.26
2023-01-29T19:12:15.747Z,1.26
2023-01-29T19:17:16.965Z,1.26
2023-01-29T19:22:18.154Z,1.24
2023-01-29T19:27:19.312Z,1.25
2023-01-29T19:32:20.614Z,1.24
2023-01-29T19:37:21.811Z,1.21
2023-01-29T19:42:23.009Z,1.21
2023-01-29T19:47:24.313Z,1.17
2023-01-29T19:52:51.074Z,1.18
2023-01-29T19:57:53.295Z,1.19
2023-01-29T20:02:54.506Z,1.14
2023-01-29T20:07:55.706Z,1.03
2023-01-29T20:12:57.057Z,0.91
2023-01-29T20:17:59.040Z,0.80
2023-01-29T20:23:01.425Z,0.73
2023-01-29T20:28:02.671Z,0.76
2023-01-29T20:33:03.919Z,0.77
2023-01-29T20:38:05.166Z,0.78
2023-01-29T20:43:06.435Z,0.75
2023-01-29T20:48:08.009Z,0.72
2023-01-29T20:53:09.236Z,0.72
2023-01-29T20:58:10.672Z,0.73
2023-01-29T21:03:11.952Z,0.75
2023-01-29T21:08:13.163Z,0.76
2023-01-29T21:13:14.381Z,0.77
2023-01-29T21:18:15.580Z,0.81
2023-01-29T21:23:16.832Z,0.85
2023-01-29T21:28:18.013Z,0.90
2023-01-29T21:33:19.209Z,0.93
2023-01-29T21:38:20.433Z,0.95
2023-01-29T21:43:21.647Z,1.00
2023-01-29T21:48:22.805Z,1.03
2023-01-29T21:53:24.123Z,1.04
2023-01-29T21:58:25.299Z,1.08
2023-01-29T22:03:26.529Z,1.11
2023-01-29T22:08:27.911Z,1.12
2023-01-29T22:13:29.204Z,1.17
2023-01-29T22:18:30.510Z,1.21
2023-01-29T22:23:31.795Z,1.21
2023-01-29T22:28:32.975Z,1.21
2023-01-29T22:33:34.253Z,1.22
2023-01-29T22:38:35.541Z,1.24
2023-01-29T22:43:36.744Z,1.26
2023-01-29T22:48:38.164Z,1.30
2023-01-29T22:53:39.409Z,1.31
2023-01-29T22:58:41.185Z,1.34
2023-01-29T23:03:42.511Z,1.36
2023-01-29T23:08:43.752Z,1.38
2023-01-29T23:13:44.937Z,1.41
2023-01-29T23:18:46.124Z,1.38
2023-01-29T23:23:47.322Z,1.37
2023-01-29T23:28:48.596Z,1.33
2023-01-29T23:33:50.424Z,1.32
2023-01-29T23:38:51.648Z,1.34
2023-01-29T23:43:53.123Z,1.36
2023-01-29T23:48:54.422Z,1.38
2023-01-29T23:53:55.698Z,1.42
2023-01-29T23:58:56.906Z,1.46
